sensor_id;sensor_type;location;lat;lon;timestamp;P1;durP1;ratioP1;P2;durP2;ratioP2
6979;SDS011;3530;52.832;10.680;2023-02-22T00:01:36;24.50;;;12.80;;
6979;SDS011;3530;52.832;10.680;2023-02-22T00:04:31;20.83;;;10.27;;
6979;SDS011;3530;52.832;10.680;2023-02-22T00:07:19;25.25;;;11.07;;
6979;SDS011;3530;52.832;10.680;2023-02-22T00:10:05;21.88;;;10.90;;
6979;SDS011;3530;52.832;10.680;2023-02-22T00:12:57;19.85;;;11.10;;
6979;SDS011;3530;52.832;10.680;2023-02-22T00:15:43;21.25;;;11.82;;
6979;SDS011;3530;52.832;10.680;2023-02-22T00:18:28;20.08;;;10.82;;
6979;SDS011;3530;52.832;10.680;2023-02-22T00:21:15;22.90;;;12.70;;
6979;SDS011;3530;52.832;10.680;2023-02-22T00:24:01;18.48;;;10.70;;
6979;SDS011;3530;52.832;10.680;2023-02-22T00:27:01;22.55;;;11.45;;
6979;SDS011;3530;52.832;10.680;2023-02-22T00:29:47;21.35;;;11.85;;
6979;SDS011;3530;52.832;10.680;2023-02-22T00:32:33;20.17;;;11.05;;
6979;SDS011;3530;52.832;10.680;2023-02-22T00:35:20;18.15;;;10.73;;
6979;SDS011;3530;52.832;10.680;2023-02-22T00:38:07;20.98;;;10.73;;
6979;SDS011;3530;52.832;10.680;2023-02-22T00:40:52;20.13;;;11.05;;
6979;SDS011;3530;52.832;10.680;2023-02-22T00:43:38;22.67;;;10.85;;
6979;SDS011;3530;52.832;10.680;2023-02-22T00:46:24;20.80;;;11.48;;
6979;SDS011;3530;52.832;10.680;2023-02-22T00:49:09;19.80;;;10.63;;
6979;SDS011;3530;52.832;10.680;2023-02-22T00:51:55;19.13;;;10.88;;
6979;SDS011;3530;52.832;10.680;2023-02-22T00:54:41;25.55;;;12.48;;
6979;SDS011;3530;52.832;10.680;2023-02-22T00:57:26;20.65;;;10.88;;
6979;SDS011;3530;52.832;10.680;2023-02-22T01:00:20;25.48;;;12.48;;
6979;SDS011;3530;52.832;10.680;2023-02-22T01:03:18;23.25;;;11.77;;
6979;SDS011;3530;52.832;10.680;2023-02-22T01:06:04;20.35;;;10.73;;
6979;SDS011;3530;52.832;10.680;2023-02-22T01:08:50;23.80;;;11.27;;
6979;SDS011;3530;52.832;10.680;2023-02-22T01:11:36;17.35;;;10.57;;
6979;SDS011;3530;52.832;10.680;2023-02-22T01:14:22;21.75;;;11.00;;
6979;SDS011;3530;52.832;10.680;2023-02-22T01:17:10;23.27;;;11.15;;
6979;SDS011;3530;52.832;10.680;2023-02-22T01:19:56;21.58;;;11.45;;
6979;SDS011;3530;52.832;10.680;2023-02-22T01:22:43;24.65;;;12.55;;
6979;SDS011;3530;52.832;10.680;2023-02-22T01:25:30;24.17;;;12.05;;
6979;SDS011;3530;52.832;10.680;2023-02-22T01:28:16;19.83;;;11.13;;
6979;SDS011;3530;52.832;10.680;2023-02-22T01:31:02;23.30;;;12.32;;
6979;SDS011;3530;52.832;10.680;2023-02-22T01:33:47;22.60;;;11.80;;
6979;SDS011;3530;52.832;10.680;2023-02-22T01:36:35;24.02;;;12.43;;
6979;SDS011;3530;52.832;10.680;2023-02-22T01:39:20;25.85;;;12.65;;
6979;SDS011;3530;52.832;10.680;2023-02-22T01:42:06;22.63;;;11.90;;
6979;SDS011;3530;52.832;10.680;2023-02-22T01:48:15;27.13;;;13.20;;
6979;SDS011;3530;52.832;10.680;2023-02-22T01:51:09;28.23;;;13.90;;
6979;SDS011;3530;52.832;10.680;2023-02-22T01:54:04;21.08;;;12.63;;
6979;SDS011;3530;52.832;10.680;2023-02-22T01:56:53;22.65;;;12.60;;
6979;SDS011;3530;52.832;10.680;2023-02-22T01:59:46;22.08;;;12.25;;
6979;SDS011;3530;52.832;10.680;2023-02-22T02:02:33;24.02;;;12.27;;
6979;SDS011;3530;52.832;10.680;2023-02-22T02:05:18;26.80;;;11.93;;
6979;SDS011;3530;52.832;10.680;2023-02-22T02:08:08;22.92;;;11.65;;
6979;SDS011;3530;52.832;10.680;2023-02-22T02:10:58;27.45;;;13.43;;
6979;SDS011;3530;52.832;10.680;2023-02-22T02:13:45;26.00;;;12.88;;
6979;SDS011;3530;52.832;10.680;2023-02-22T02:16:39;26.00;;;11.90;;
6979;SDS011;3530;52.832;10.680;2023-02-22T02:22:33;32.70;;;15.38;;
6979;SDS011;3530;52.832;10.680;2023-02-22T02:25:41;25.58;;;14.02;;
6979;SDS011;3530;52.832;10.680;2023-02-22T02:31:55;28.45;;;14.27;;
6979;SDS011;3530;52.832;10.680;2023-02-22T02:34:51;25.92;;;13.27;;
6979;SDS011;3530;52.832;10.680;2023-02-22T02:41:05;27.92;;;14.23;;
6979;SDS011;3530;52.832;10.680;2023-02-22T02:47:00;17.88;;;11.43;;
6979;SDS011;3530;52.832;10.680;2023-02-22T02:52:44;25.48;;;12.75;;
6979;SDS011;3530;52.832;10.680;2023-02-22T02:55:30;24.48;;;12.93;;
6979;SDS011;3530;52.832;10.680;2023-02-22T02:58:18;18.60;;;10.10;;
6979;SDS011;3530;52.832;10.680;2023-02-22T03:01:05;28.92;;;14.68;;
6979;SDS011;3530;52.832;10.680;2023-02-22T03:13:55;26.60;;;14.55;;
6979;SDS011;3530;52.832;10.680;2023-02-22T03:16:49;28.42;;;14.00;;
6979;SDS011;3530;52.832;10.680;2023-02-22T03:19:39;27.90;;;14.75;;
6979;SDS011;3530;52.832;10.680;2023-02-22T03:22:30;28.00;;;15.63;;
6979;SDS011;3530;52.832;10.680;2023-02-22T03:25:22;24.88;;;12.55;;
6979;SDS011;3530;52.832;10.680;2023-02-22T03:28:13;30.17;;;15.35;;
6979;SDS011;3530;52.832;10.680;2023-02-22T03:31:03;30.75;;;13.85;;
6979;SDS011;3530;52.832;10.680;2023-02-22T03:33:56;31.45;;;14.52;;
6979;SDS011;3530;52.832;10.680;2023-02-22T03:36:46;30.08;;;14.98;;
6979;SDS011;3530;52.832;10.680;2023-02-22T03:39:34;29.27;;;14.20;;
6979;SDS011;3530;52.832;10.680;2023-02-22T03:42:40;23.27;;;12.15;;
6979;SDS011;3530;52.832;10.680;2023-02-22T03:45:28;28.05;;;14.38;;
6979;SDS011;3530;52.832;10.680;2023-02-22T03:48:18;29.08;;;14.15;;
6979;SDS011;3530;52.832;10.680;2023-02-22T03:51:16;30.20;;;14.50;;
6979;SDS011;3530;52.832;10.680;2023-02-22T03:54:02;28.17;;;12.88;;
6979;SDS011;3530;52.832;10.680;2023-02-22T03:56:51;28.88;;;14.10;;
6979;SDS011;3530;52.832;10.680;2023-02-22T03:59:38;26.02;;;14.10;;
6979;SDS011;3530;52.832;10.680;2023-02-22T04:02:24;24.30;;;12.95;;
6979;SDS011;3530;52.832;10.680;2023-02-22T04:05:10;26.63;;;13.70;;
6979;SDS011;3530;52.832;10.680;2023-02-22T04:07:56;29.13;;;14.77;;
6979;SDS011;3530;52.832;10.680;2023-02-22T04:10:42;29.60;;;14.55;;
6979;SDS011;3530;52.832;10.680;2023-02-22T04:13:28;30.60;;;13.75;;
6979;SDS011;3530;52.832;10.680;2023-02-22T04:16:14;28.20;;;13.95;;
6979;SDS011;3530;52.832;10.680;2023-02-22T04:18:59;33.47;;;16.60;;
6979;SDS011;3530;52.832;10.680;2023-02-22T04:21:45;48.55;;;20.73;;
6979;SDS011;3530;52.832;10.680;2023-02-22T04:24:31;44.95;;;22.50;;
6979;SDS011;3530;52.832;10.680;2023-02-22T04:27:16;34.78;;;17.52;;
6979;SDS011;3530;52.832;10.680;2023-02-22T04:30:02;29.45;;;14.32;;
6979;SDS011;3530;52.832;10.680;2023-02-22T04:32:48;25.25;;;14.02;;
6979;SDS011;3530;52.832;10.680;2023-02-22T04:35:33;25.98;;;14.35;;
6979;SDS011;3530;52.832;10.680;2023-02-22T04:38:19;32.30;;;15.05;;
6979;SDS011;3530;52.832;10.680;2023-02-22T04:41:05;29.88;;;14.55;;
6979;SDS011;3530;52.832;10.680;2023-02-22T04:43:50;30.27;;;14.88;;
6979;SDS011;3530;52.832;10.680;2023-02-22T04:46:36;28.42;;;14.95;;
6979;SDS011;3530;52.832;10.680;2023-02-22T04:49:22;26.05;;;13.57;;
6979;SDS011;3530;52.832;10.680;2023-02-22T04:52:08;27.40;;;15.05;;
6979;SDS011;3530;52.832;10.680;2023-02-22T04:54:54;32.00;;;15.20;;
6979;SDS011;3530;52.832;10.680;2023-02-22T04:57:39;27.98;;;15.10;;
6979;SDS011;3530;52.832;10.680;2023-02-22T05:00:25;27.55;;;14.77;;
6979;SDS011;3530;52.832;10.680;2023-02-22T05:03:11;31.85;;;15.18;;
6979;SDS011;3530;52.832;10.680;2023-02-22T05:05:56;33.00;;;15.48;;
6979;SDS011;3530;52.832;10.680;2023-02-22T05:08:42;34.55;;;15.65;;
6979;SDS011;3530;52.832;10.680;2023-02-22T05:11:28;29.77;;;13.70;;
6979;SDS011;3530;52.832;10.680;2023-02-22T05:14:14;28.95;;;14.07;;
6979;SDS011;3530;52.832;10.680;2023-02-22T05:16:59;24.67;;;13.20;;
6979;SDS011;3530;52.832;10.680;2023-02-22T05:19:46;32.80;;;16.38;;
6979;SDS011;3530;52.832;10.680;2023-02-22T05:22:32;32.95;;;15.85;;
6979;SDS011;3530;52.832;10.680;2023-02-22T05:25:17;30.90;;;15.38;;
6979;SDS011;3530;52.832;10.680;2023-02-22T05:28:07;33.90;;;14.40;;
6979;SDS011;3530;52.832;10.680;2023-02-22T05:30:55;31.10;;;14.40;;
6979;SDS011;3530;52.832;10.680;2023-02-22T05:33:41;37.50;;;15.65;;
6979;SDS011;3530;52.832;10.680;2023-02-22T05:36:27;32.05;;;15.38;;
6979;SDS011;3530;52.832;10.680;2023-02-22T05:39:13;33.13;;;15.02;;
6979;SDS011;3530;52.832;10.680;2023-02-22T05:41:58;27.10;;;14.25;;
6979;SDS011;3530;52.832;10.680;2023-02-22T05:44:44;31.58;;;15.77;;
6979;SDS011;3530;52.832;10.680;2023-02-22T05:47:30;31.38;;;15.45;;
6979;SDS011;3530;52.832;10.680;2023-02-22T05:50:16;29.67;;;14.68;;
6979;SDS011;3530;52.832;10.680;2023-02-22T05:53:02;32.38;;;14.35;;
6979;SDS011;3530;52.832;10.680;2023-02-22T05:55:48;23.60;;;12.32;;
6979;SDS011;3530;52.832;10.680;2023-02-22T05:58:34;31.60;;;13.85;;
6979;SDS011;3530;52.832;10.680;2023-02-22T06:01:20;31.40;;;14.40;;
6979;SDS011;3530;52.832;10.680;2023-02-22T06:04:06;29.48;;;16.17;;
6979;SDS011;3530;52.832;10.680;2023-02-22T06:06:51;33.30;;;14.43;;
6979;SDS011;3530;52.832;10.680;2023-02-22T06:09:37;28.10;;;14.15;;
6979;SDS011;3530;52.832;10.680;2023-02-22T06:12:23;31.73;;;14.75;;
6979;SDS011;3530;52.832;10.680;2023-02-22T06:15:09;33.67;;;14.65;;
6979;SDS011;3530;52.832;10.680;2023-02-22T06:17:55;31.55;;;14.57;;
6979;SDS011;3530;52.832;10.680;2023-02-22T06:20:42;30.90;;;14.35;;
6979;SDS011;3530;52.832;10.680;2023-02-22T06:23:27;31.33;;;15.13;;
6979;SDS011;3530;52.832;10.680;2023-02-22T06:26:16;29.95;;;15.77;;
6979;SDS011;3530;52.832;10.680;2023-02-22T06:29:02;26.80;;;13.10;;
6979;SDS011;3530;52.832;10.680;2023-02-22T06:31:50;29.10;;;13.48;;
6979;SDS011;3530;52.832;10.680;2023-02-22T06:34:35;31.85;;;15.60;;
6979;SDS011;3530;52.832;10.680;2023-02-22T06:37:21;28.38;;;14.65;;
6979;SDS011;3530;52.832;10.680;2023-02-22T06:40:07;32.13;;;15.05;;
6979;SDS011;3530;52.832;10.680;2023-02-22T06:42:53;30.02;;;14.25;;
6979;SDS011;3530;52.832;10.680;2023-02-22T06:45:38;29.52;;;14.38;;
6979;SDS011;3530;52.832;10.680;2023-02-22T06:48:24;31.17;;;15.07;;
6979;SDS011;3530;52.832;10.680;2023-02-22T06:51:10;29.90;;;13.48;;
6979;SDS011;3530;52.832;10.680;2023-02-22T06:53:55;28.90;;;14.27;;
6979;SDS011;3530;52.832;10.680;2023-02-22T06:56:41;28.90;;;15.05;;
6979;SDS011;3530;52.832;10.680;2023-02-22T06:59:27;32.40;;;14.23;;
6979;SDS011;3530;52.832;10.680;2023-02-22T07:02:13;29.42;;;15.48;;
6979;SDS011;3530;52.832;10.680;2023-02-22T07:04:58;28.75;;;13.57;;
6979;SDS011;3530;52.832;10.680;2023-02-22T07:07:44;32.55;;;14.02;;
6979;SDS011;3530;52.832;10.680;2023-02-22T07:10:31;31.13;;;14.98;;
6979;SDS011;3530;52.832;10.680;2023-02-22T07:13:17;41.72;;;16.83;;
6979;SDS011;3530;52.832;10.680;2023-02-22T07:16:03;29.67;;;15.57;;
6979;SDS011;3530;52.832;10.680;2023-02-22T07:18:49;34.60;;;15.90;;
6979;SDS011;3530;52.832;10.680;2023-02-22T07:21:35;28.55;;;14.55;;
6979;SDS011;3530;52.832;10.680;2023-02-22T07:24:20;42.38;;;17.60;;
6979;SDS011;3530;52.832;10.680;2023-02-22T07:27:06;34.70;;;16.45;;
6979;SDS011;3530;52.832;10.680;2023-02-22T07:29:51;32.10;;;15.05;;
6979;SDS011;3530;52.832;10.680;2023-02-22T07:32:37;33.20;;;15.05;;
6979;SDS011;3530;52.832;10.680;2023-02-22T07:35:33;40.55;;;16.60;;
6979;SDS011;3530;52.832;10.680;2023-02-22T07:38:23;29.20;;;14.40;;
6979;SDS011;3530;52.832;10.680;2023-02-22T07:41:09;39.63;;;17.45;;
6979;SDS011;3530;52.832;10.680;2023-02-22T07:43:54;33.00;;;14.13;;
6979;SDS011;3530;52.832;10.680;2023-02-22T07:46:40;36.67;;;16.10;;
6979;SDS011;3530;52.832;10.680;2023-02-22T07:49:26;34.22;;;14.73;;
6979;SDS011;3530;52.832;10.680;2023-02-22T07:52:11;33.05;;;16.63;;
6979;SDS011;3530;52.832;10.680;2023-02-22T07:54:57;34.00;;;15.75;;
6979;SDS011;3530;52.832;10.680;2023-02-22T07:57:46;28.75;;;15.07;;
6979;SDS011;3530;52.832;10.680;2023-02-22T08:00:34;38.78;;;16.00;;
6979;SDS011;3530;52.832;10.680;2023-02-22T08:03:22;34.42;;;15.63;;
6979;SDS011;3530;52.832;10.680;2023-02-22T08:06:08;39.20;;;16.70;;
6979;SDS011;3530;52.832;10.680;2023-02-22T08:08:54;38.83;;;16.52;;
6979;SDS011;3530;52.832;10.680;2023-02-22T08:11:40;44.83;;;18.88;;
6979;SDS011;3530;52.832;10.680;2023-02-22T08:14:25;37.30;;;15.77;;
6979;SDS011;3530;52.832;10.680;2023-02-22T08:17:11;34.65;;;15.00;;
6979;SDS011;3530;52.832;10.680;2023-02-22T08:19:57;36.20;;;16.85;;
6979;SDS011;3530;52.832;10.680;2023-02-22T08:22:42;43.63;;;19.05;;
6979;SDS011;3530;52.832;10.680;2023-02-22T08:25:28;45.85;;;19.00;;
6979;SDS011;3530;52.832;10.680;2023-02-22T08:28:15;42.03;;;17.35;;
6979;SDS011;3530;52.832;10.680;2023-02-22T08:31:02;39.88;;;16.58;;
6979;SDS011;3530;52.832;10.680;2023-02-22T08:33:47;38.47;;;16.42;;
6979;SDS011;3530;52.832;10.680;2023-02-22T08:36:34;50.03;;;20.02;;
6979;SDS011;3530;52.832;10.680;2023-02-22T08:39:20;42.58;;;17.45;;
6979;SDS011;3530;52.832;10.680;2023-02-22T08:42:06;40.03;;;15.98;;
6979;SDS011;3530;52.832;10.680;2023-02-22T08:44:53;41.90;;;18.48;;
6979;SDS011;3530;52.832;10.680;2023-02-22T08:47:39;34.15;;;14.52;;
6979;SDS011;3530;52.832;10.680;2023-02-22T08:50:27;32.47;;;15.15;;
6979;SDS011;3530;52.832;10.680;2023-02-22T08:53:14;38.75;;;16.77;;
6979;SDS011;3530;52.832;10.680;2023-02-22T08:56:00;40.65;;;16.20;;
6979;SDS011;3530;52.832;10.680;2023-02-22T08:58:46;34.83;;;16.10;;
6979;SDS011;3530;52.832;10.680;2023-02-22T09:01:31;37.63;;;16.88;;
6979;SDS011;3530;52.832;10.680;2023-02-22T09:04:19;38.00;;;18.02;;
6979;SDS011;3530;52.832;10.680;2023-02-22T09:07:04;31.02;;;13.98;;
6979;SDS011;3530;52.832;10.680;2023-02-22T09:09:50;34.10;;;15.63;;
6979;SDS011;3530;52.832;10.680;2023-02-22T09:12:35;38.28;;;16.88;;
6979;SDS011;3530;52.832;10.680;2023-02-22T09:15:21;33.78;;;13.40;;
6979;SDS011;3530;52.832;10.680;2023-02-22T09:18:10;36.03;;;15.27;;
6979;SDS011;3530;52.832;10.680;2023-02-22T09:20:57;30.45;;;15.25;;
6979;SDS011;3530;52.832;10.680;2023-02-22T09:23:45;31.60;;;13.68;;
6979;SDS011;3530;52.832;10.680;2023-02-22T09:26:31;35.90;;;14.85;;
6979;SDS011;3530;52.832;10.680;2023-02-22T09:29:17;30.73;;;14.63;;
6979;SDS011;3530;52.832;10.680;2023-02-22T09:32:07;29.15;;;15.10;;
6979;SDS011;3530;52.832;10.680;2023-02-22T09:34:53;34.03;;;15.52;;
6979;SDS011;3530;52.832;10.680;2023-02-22T09:37:39;28.17;;;13.60;;
6979;SDS011;3530;52.832;10.680;2023-02-22T09:40:25;32.47;;;14.30;;
6979;SDS011;3530;52.832;10.680;2023-02-22T09:46:15;30.52;;;14.60;;
6979;SDS011;3530;52.832;10.680;2023-02-22T09:52:17;25.25;;;13.27;;
6979;SDS011;3530;52.832;10.680;2023-02-22T09:55:08;19.33;;;11.50;;
6979;SDS011;3530;52.832;10.680;2023-02-22T09:58:05;26.40;;;11.80;;
6979;SDS011;3530;52.832;10.680;2023-02-22T10:00:57;23.15;;;11.02;;
6979;SDS011;3530;52.832;10.680;2023-02-22T10:04:23;22.38;;;10.90;;
6979;SDS011;3530;52.832;10.680;2023-02-22T10:07:13;26.05;;;12.43;;
6979;SDS011;3530;52.832;10.680;2023-02-22T10:10:02;24.52;;;11.02;;
6979;SDS011;3530;52.832;10.680;2023-02-22T10:13:04;24.25;;;10.27;;
6979;SDS011;3530;52.832;10.680;2023-02-22T10:16:05;20.52;;;10.50;;
6979;SDS011;3530;52.832;10.680;2023-02-22T10:25:20;12.60;;;6.82;;
6979;SDS011;3530;52.832;10.680;2023-02-22T10:28:17;15.18;;;6.82;;
6979;SDS011;3530;52.832;10.680;2023-02-22T10:31:08;11.20;;;6.35;;
6979;SDS011;3530;52.832;10.680;2023-02-22T10:34:03;7.80;;;5.55;;
6979;SDS011;3530;52.832;10.680;2023-02-22T10:36:58;10.23;;;5.45;;
6979;SDS011;3530;52.832;10.680;2023-02-22T10:39:50;13.57;;;6.50;;
6979;SDS011;3530;52.832;10.680;2023-02-22T10:42:39;9.30;;;5.68;;
6979;SDS011;3530;52.832;10.680;2023-02-22T10:45:26;12.20;;;6.30;;
6979;SDS011;3530;52.832;10.680;2023-02-22T10:48:15;14.30;;;6.45;;
6979;SDS011;3530;52.832;10.680;2023-02-22T10:51:03;16.02;;;7.38;;
6979;SDS011;3530;52.832;10.680;2023-02-22T10:53:53;10.45;;;5.20;;
6979;SDS011;3530;52.832;10.680;2023-02-22T10:56:52;7.45;;;5.30;;
6979;SDS011;3530;52.832;10.680;2023-02-22T10:59:40;17.50;;;6.82;;
6979;SDS011;3530;52.832;10.680;2023-02-22T11:02:28;10.60;;;6.28;;
6979;SDS011;3530;52.832;10.680;2023-02-22T11:05:25;12.57;;;6.85;;
6979;SDS011;3530;52.832;10.680;2023-02-22T11:11:21;12.68;;;7.05;;
6979;SDS011;3530;52.832;10.680;2023-02-22T11:14:09;9.52;;;6.70;;
6979;SDS011;3530;52.832;10.680;2023-02-22T11:16:56;11.13;;;5.50;;
6979;SDS011;3530;52.832;10.680;2023-02-22T11:19:47;11.32;;;6.43;;
6979;SDS011;3530;52.832;10.680;2023-02-22T11:22:38;11.30;;;7.13;;
6979;SDS011;3530;52.832;10.680;2023-02-22T11:25:38;15.15;;;7.43;;
6979;SDS011;3530;52.832;10.680;2023-02-22T11:28:26;14.23;;;7.03;;
6979;SDS011;3530;52.832;10.680;2023-02-22T11:31:18;15.13;;;7.93;;
6979;SDS011;3530;52.832;10.680;2023-02-22T11:34:06;11.95;;;6.32;;
6979;SDS011;3530;52.832;10.680;2023-02-22T11:37:15;14.93;;;6.35;;
6979;SDS011;3530;52.832;10.680;2023-02-22T11:40:15;10.32;;;6.05;;
6979;SDS011;3530;52.832;10.680;2023-02-22T11:43:17;14.63;;;7.60;;
6979;SDS011;3530;52.832;10.680;2023-02-22T11:46:04;12.27;;;8.00;;
6979;SDS011;3530;52.832;10.680;2023-02-22T11:58:04;13.95;;;8.27;;
6979;SDS011;3530;52.832;10.680;2023-02-22T12:01:30;17.70;;;8.13;;
6979;SDS011;3530;52.832;10.680;2023-02-22T12:07:33;22.88;;;11.27;;
6979;SDS011;3530;52.832;10.680;2023-02-22T12:10:43;15.88;;;7.97;;
6979;SDS011;3530;52.832;10.680;2023-02-22T12:22:35;16.92;;;9.82;;
6979;SDS011;3530;52.832;10.680;2023-02-22T12:25:24;19.15;;;11.40;;
6979;SDS011;3530;52.832;10.680;2023-02-22T12:28:21;15.15;;;8.10;;
6979;SDS011;3530;52.832;10.680;2023-02-22T12:31:19;12.52;;;6.93;;
6979;SDS011;3530;52.832;10.680;2023-02-22T12:34:10;21.30;;;10.85;;
6979;SDS011;3530;52.832;10.680;2023-02-22T12:40:31;18.70;;;9.90;;
6979;SDS011;3530;52.832;10.680;2023-02-22T12:43:28;19.85;;;11.15;;
6979;SDS011;3530;52.832;10.680;2023-02-22T12:46:22;22.98;;;11.52;;
6979;SDS011;3530;52.832;10.680;2023-02-22T12:49:38;18.67;;;9.82;;
6979;SDS011;3530;52.832;10.680;2023-02-22T12:52:49;18.70;;;10.07;;
6979;SDS011;3530;52.832;10.680;2023-02-22T12:55:46;25.40;;;12.98;;
6979;SDS011;3530;52.832;10.680;2023-02-22T12:58:37;13.60;;;9.00;;
6979;SDS011;3530;52.832;10.680;2023-02-22T13:01:26;17.17;;;9.38;;
6979;SDS011;3530;52.832;10.680;2023-02-22T13:04:14;22.50;;;11.52;;
6979;SDS011;3530;52.832;10.680;2023-02-22T13:09:59;19.48;;;11.82;;
6979;SDS011;3530;52.832;10.680;2023-02-22T13:13:06;16.55;;;10.30;;
6979;SDS011;3530;52.832;10.680;2023-02-22T13:16:08;13.90;;;8.55;;
6979;SDS011;3530;52.832;10.680;2023-02-22T13:25:13;15.13;;;9.35;;
6979;SDS011;3530;52.832;10.680;2023-02-22T13:31:11;24.02;;;10.45;;
6979;SDS011;3530;52.832;10.680;2023-02-22T13:34:05;20.23;;;10.77;;
6979;SDS011;3530;52.832;10.680;2023-02-22T13:53:16;16.02;;;8.45;;
6979;SDS011;3530;52.832;10.680;2023-02-22T13:56:08;18.05;;;8.95;;
6979;SDS011;3530;52.832;10.680;2023-02-22T13:58:56;18.17;;;9.25;;
6979;SDS011;3530;52.832;10.680;2023-02-22T14:01:46;14.98;;;8.18;;
6979;SDS011;3530;52.832;10.680;2023-02-22T14:04:34;16.45;;;8.10;;
6979;SDS011;3530;52.832;10.680;2023-02-22T14:10:30;16.30;;;8.88;;
6979;SDS011;3530;52.832;10.680;2023-02-22T14:13:23;17.83;;;8.13;;
6979;SDS011;3530;52.832;10.680;2023-02-22T14:16:16;17.92;;;10.48;;
6979;SDS011;3530;52.832;10.680;2023-02-22T14:19:11;17.27;;;9.00;;
6979;SDS011;3530;52.832;10.680;2023-02-22T14:21:59;11.75;;;7.53;;
6979;SDS011;3530;52.832;10.680;2023-02-22T14:24:47;15.43;;;8.15;;
6979;SDS011;3530;52.832;10.680;2023-02-22T14:27:39;13.15;;;7.32;;
6979;SDS011;3530;52.832;10.680;2023-02-22T14:30:26;13.77;;;7.75;;
6979;SDS011;3530;52.832;10.680;2023-02-22T14:39:44;11.68;;;7.63;;
6979;SDS011;3530;52.832;10.680;2023-02-22T14:42:33;14.65;;;8.15;;
6979;SDS011;3530;52.832;10.680;2023-02-22T14:45:22;14.27;;;8.20;;
6979;SDS011;3530;52.832;10.680;2023-02-22T14:51:04;17.55;;;9.50;;
6979;SDS011;3530;52.832;10.680;2023-02-22T14:54:11;16.15;;;8.55;;
6979;SDS011;3530;52.832;10.680;2023-02-22T14:57:26;13.77;;;8.15;;
6979;SDS011;3530;52.832;10.680;2023-02-22T15:00:19;16.05;;;7.38;;
6979;SDS011;3530;52.832;10.680;2023-02-22T15:06:11;14.15;;;8.95;;
6979;SDS011;3530;52.832;10.680;2023-02-22T15:09:04;15.68;;;8.57;;
6979;SDS011;3530;52.832;10.680;2023-02-22T15:14:47;11.82;;;6.95;;
6979;SDS011;3530;52.832;10.680;2023-02-22T15:17:34;16.30;;;8.50;;
6979;SDS011;3530;52.832;10.680;2023-02-22T15:20:20;14.55;;;8.35;;
6979;SDS011;3530;52.832;10.680;2023-02-22T15:23:06;14.05;;;7.65;;
6979;SDS011;3530;52.832;10.680;2023-02-22T15:25:52;17.77;;;9.38;;
6979;SDS011;3530;52.832;10.680;2023-02-22T15:28:38;17.60;;;8.57;;
6979;SDS011;3530;52.832;10.680;2023-02-22T15:31:25;11.80;;;7.63;;
6979;SDS011;3530;52.832;10.680;2023-02-22T15:34:28;14.45;;;7.85;;
6979;SDS011;3530;52.832;10.680;2023-02-22T15:37:19;14.95;;;8.32;;
6979;SDS011;3530;52.832;10.680;2023-02-22T15:40:19;14.13;;;7.55;;
6979;SDS011;3530;52.832;10.680;2023-02-22T15:43:06;16.10;;;7.68;;
6979;SDS011;3530;52.832;10.680;2023-02-22T15:45:55;17.45;;;9.43;;
6979;SDS011;3530;52.832;10.680;2023-02-22T15:48:42;14.55;;;8.57;;
6979;SDS011;3530;52.832;10.680;2023-02-22T15:51:27;13.68;;;7.45;;
6979;SDS011;3530;52.832;10.680;2023-02-22T15:54:13;13.57;;;8.00;;
6979;SDS011;3530;52.832;10.680;2023-02-22T15:57:00;13.35;;;8.75;;
6979;SDS011;3530;52.832;10.680;2023-02-22T15:59:51;12.60;;;7.82;;
6979;SDS011;3530;52.832;10.680;2023-02-22T16:02:38;17.00;;;8.95;;
6979;SDS011;3530;52.832;10.680;2023-02-22T16:05:31;15.75;;;7.82;;
6979;SDS011;3530;52.832;10.680;2023-02-22T16:11:15;14.55;;;8.20;;
6979;SDS011;3530;52.832;10.680;2023-02-22T16:14:22;15.90;;;8.52;;
6979;SDS011;3530;52.832;10.680;2023-02-22T16:17:18;12.15;;;7.45;;
6979;SDS011;3530;52.832;10.680;2023-02-22T16:23:23;10.35;;;7.13;;
6979;SDS011;3530;52.832;10.680;2023-02-22T16:29:24;17.58;;;8.65;;
6979;SDS011;3530;52.832;10.680;2023-02-22T16:32:10;15.30;;;7.78;;
6979;SDS011;3530;52.832;10.680;2023-02-22T16:34:56;12.50;;;8.10;;
6979;SDS011;3530;52.832;10.680;2023-02-22T16:37:41;12.15;;;7.70;;
6979;SDS011;3530;52.832;10.680;2023-02-22T16:43:23;15.07;;;8.57;;
6979;SDS011;3530;52.832;10.680;2023-02-22T16:46:10;13.95;;;8.38;;
6979;SDS011;3530;52.832;10.680;2023-02-22T16:48:56;11.13;;;7.78;;
6979;SDS011;3530;52.832;10.680;2023-02-22T16:51:55;15.40;;;8.18;;
6979;SDS011;3530;52.832;10.680;2023-02-22T16:54:43;14.32;;;7.47;;
6979;SDS011;3530;52.832;10.680;2023-02-22T16:57:30;13.40;;;7.32;;
6979;SDS011;3530;52.832;10.680;2023-02-22T17:00:17;14.63;;;8.75;;
6979;SDS011;3530;52.832;10.680;2023-02-22T17:03:06;15.00;;;7.38;;
6979;SDS011;3530;52.832;10.680;2023-02-22T17:05:52;13.23;;;7.38;;
6979;SDS011;3530;52.832;10.680;2023-02-22T17:08:38;13.35;;;8.77;;
6979;SDS011;3530;52.832;10.680;2023-02-22T17:11:24;12.38;;;6.88;;
6979;SDS011;3530;52.832;10.680;2023-02-22T17:14:11;11.13;;;7.28;;
6979;SDS011;3530;52.832;10.680;2023-02-22T17:17:01;17.20;;;9.70;;
6979;SDS011;3530;52.832;10.680;2023-02-22T17:19:47;14.30;;;7.82;;
6979;SDS011;3530;52.832;10.680;2023-02-22T17:22:33;16.73;;;8.95;;
6979;SDS011;3530;52.832;10.680;2023-02-22T17:25:20;12.75;;;7.72;;
6979;SDS011;3530;52.832;10.680;2023-02-22T17:28:09;11.15;;;7.35;;
6979;SDS011;3530;52.832;10.680;2023-02-22T17:30:56;11.50;;;7.28;;
6979;SDS011;3530;52.832;10.680;2023-02-22T17:33:45;11.95;;;8.55;;
6979;SDS011;3530;52.832;10.680;2023-02-22T17:36:31;13.95;;;8.68;;
6979;SDS011;3530;52.832;10.680;2023-02-22T17:39:18;14.18;;;8.45;;
6979;SDS011;3530;52.832;10.680;2023-02-22T17:42:04;15.63;;;8.27;;
6979;SDS011;3530;52.832;10.680;2023-02-22T17:44:49;12.23;;;7.78;;
6979;SDS011;3530;52.832;10.680;2023-02-22T17:47:35;12.32;;;8.48;;
6979;SDS011;3530;52.832;10.680;2023-02-22T17:50:21;16.77;;;9.48;;
6979;SDS011;3530;52.832;10.680;2023-02-22T17:53:07;13.82;;;8.13;;
6979;SDS011;3530;52.832;10.680;2023-02-22T17:55:55;14.90;;;8.55;;
6979;SDS011;3530;52.832;10.680;2023-02-22T17:58:43;17.95;;;8.40;;
6979;SDS011;3530;52.832;10.680;2023-02-22T18:01:37;12.63;;;7.72;;
6979;SDS011;3530;52.832;10.680;2023-02-22T18:04:22;13.48;;;8.57;;
6979;SDS011;3530;52.832;10.680;2023-02-22T18:07:08;16.90;;;8.50;;
6979;SDS011;3530;52.832;10.680;2023-02-22T18:09:54;28.88;;;16.63;;
6979;SDS011;3530;52.832;10.680;2023-02-22T18:12:40;29.40;;;20.10;;
6979;SDS011;3530;52.832;10.680;2023-02-22T18:15:27;24.50;;;16.80;;
6979;SDS011;3530;52.832;10.680;2023-02-22T18:18:13;20.50;;;13.68;;
6979;SDS011;3530;52.832;10.680;2023-02-22T18:21:02;15.85;;;12.57;;
6979;SDS011;3530;52.832;10.680;2023-02-22T18:23:48;22.15;;;15.10;;
6979;SDS011;3530;52.832;10.680;2023-02-22T18:26:33;23.95;;;15.73;;
6979;SDS011;3530;52.832;10.680;2023-02-22T18:29:19;16.50;;;9.75;;
6979;SDS011;3530;52.832;10.680;2023-02-22T18:32:05;18.10;;;9.15;;
6979;SDS011;3530;52.832;10.680;2023-02-22T18:34:56;13.52;;;8.50;;
6979;SDS011;3530;52.832;10.680;2023-02-22T18:37:42;14.55;;;9.02;;
6979;SDS011;3530;52.832;10.680;2023-02-22T18:40:28;17.48;;;11.75;;
6979;SDS011;3530;52.832;10.680;2023-02-22T18:43:14;23.45;;;12.32;;
6979;SDS011;3530;52.832;10.680;2023-02-22T18:46:03;43.28;;;25.17;;
6979;SDS011;3530;52.832;10.680;2023-02-22T18:48:51;28.60;;;15.70;;
6979;SDS011;3530;52.832;10.680;2023-02-22T18:51:38;24.05;;;13.98;;
6979;SDS011;3530;52.832;10.680;2023-02-22T18:54:27;21.38;;;14.88;;
6979;SDS011;3530;52.832;10.680;2023-02-22T18:57:13;24.92;;;16.63;;